Stations météo

réclame
Mon MeteoGroup
Pajares/Valgrande, Espagne (8031): Température de l'air & dewpoint: 17.10.2018 12:00:00 - 23.10.2018 12:00:00 (CEST)Pajares/Valgrande, Espagne (8031): Vitesse du vent & gusts: 17.10.2018 12:00:00 - 23.10.2018 12:00:00 (CEST)Pajares/Valgrande, Espagne (8031): Direction du vent: 17.10.2018 12:00:00 - 23.10.2018 12:00:00 (CEST)Pajares/Valgrande, Espagne (8031): Quantités de précipitations: 17.10.2018 12:00:00 - 23.10.2018 12:00:00 (CEST)
Date & Time tt [°C] td [°C] ff [km/h] ff [knt] fx [km/h] fx [knt] dd rr [mm]
23.10.2018 12:00:00 9,6 2,5 3 2 10 6 NNE 0,0
23.10.2018 11:00:00 8,4 3,9 3 1 9 5 N 0,0
23.10.2018 10:00:00 5,1 2,1 1 1 10 5 W 0,0
23.10.2018 09:00:00 4,3 2,7 4 2 9 5 SSW 0,0
23.10.2018 08:00:00 4,4 3,2 3 1 10 5 SW -
23.10.2018 07:00:00 4,7 3,6 3 1 9 5 W 0,0
23.10.2018 06:00:00 4,9 3,8 5 3 12 7 NW 0,0
23.10.2018 05:00:00 5,1 3,9 4 2 12 6 NW 0,0
23.10.2018 04:00:00 5,2 3,9 6 3 12 7 NNW 0,0
23.10.2018 03:00:00 5,3 4,1 6 3 11 6 NNW 0,0
23.10.2018 02:00:00 5,6 4,5 5 3 16 9 NW -
23.10.2018 01:00:00 5,9 4,6 6 3 15 8 WNW 0,0
23.10.2018 00:00:00 6,0 4,8 6 4 17 9 WNW 0,0
22.10.2018 23:00:00 6,2 5,0 7 4 21 11 NW 0,0
22.10.2018 22:00:00 6,3 5,1 6 4 22 12 NNW 0,0
22.10.2018 21:00:00 6,7 5,5 6 4 18 10 NW 0,0
22.10.2018 20:00:00 7,0 5,6 6 3 19 11 N -
22.10.2018 19:00:00 7,1 5,3 9 5 21 11 NNW 0,0
22.10.2018 18:00:00 7,5 5,0 12 6 24 13 NW 0,0
22.10.2018 17:00:00 7,9 5,1 13 7 26 14 NW 0,0
22.10.2018 16:00:00 8,0 5,5 9 5 29 16 NW 0,0
22.10.2018 15:00:00 7,8 5,1 15 8 29 16 NW 0,0
22.10.2018 14:00:00 8,5 4,6 16 8 29 15 NW -
22.10.2018 13:00:00 8,4 5,8 13 7 23 12 NW 0,0
22.10.2018 12:00:00 8,0 6,2 7 4 11 6 NNW 0,0
22.10.2018 11:00:00 7,0 5,6 4 2 13 7 NW 0,0
22.10.2018 10:00:00 6,9 5,5 3 1 11 6 NNW 0,0
22.10.2018 09:00:00 7,0 5,6 6 3 12 7 WNW 0,0
22.10.2018 08:00:00 7,1 5,8 5 3 10 5 NNW -
22.10.2018 07:00:00 5,9 3,9 0 0 7 4 SSE 0,0
22.10.2018 06:00:00 7,5 5,9 3 1 10 6 WNW 0,0
22.10.2018 05:00:00 8,2 6,7 5 3 15 8 NW 0,0
22.10.2018 04:00:00 8,4 6,8 6 3 14 8 NW 0,0
22.10.2018 03:00:00 8,7 7,1 4 2 10 6 NNW 0,0
22.10.2018 02:00:00 7,3 5,8 1 1 9 5 SSW -
22.10.2018 01:00:00 8,2 6,7 2 1 8 4 SW 0,0
22.10.2018 00:00:00 9,4 7,3 1 1 10 5 SSE 0,0
21.10.2018 23:00:00 10,3 8,1 0 0 6 4 N 0,0
21.10.2018 22:00:00 9,3 6,5 3 2 8 5 SSW 0,0
21.10.2018 21:00:00 9,3 6,4 5 3 9 5 SSW 0,0
21.10.2018 20:00:00 9,8 6,1 4 2 8 4 SSW -
21.10.2018 19:00:00 11,9 5,9 0 0 5 3 W 0,0
21.10.2018 18:00:00 14,1 6,4 4 2 10 5 WNW 0,0
21.10.2018 17:00:00 14,5 6,8 5 3 11 6 NW 0,0
21.10.2018 16:00:00 15,0 7,3 5 3 15 8 NW 0,0
21.10.2018 15:00:00 14,8 5,8 8 4 16 9 WNW 0,0
21.10.2018 14:00:00 15,5 5,6 8 4 19 10 S -
21.10.2018 13:00:00 14,4 6,2 9 5 24 13 SE 0,0
21.10.2018 12:00:00 12,9 6,2 13 7 32 17 S 0,0
21.10.2018 11:00:00 11,7 5,3 18 10 39 21 SSE 0,0
21.10.2018 10:00:00 10,4 4,5 15 8 27 15 S 0,0
21.10.2018 09:00:00 10,0 4,3 18 10 32 18 SSE 0,0
21.10.2018 08:00:00 9,9 4,6 19 11 30 16 S -
21.10.2018 07:00:00 9,9 4,6 13 7 24 13 SSE 0,0
21.10.2018 06:00:00 9,9 4,6 14 8 26 14 S 0,0
21.10.2018 05:00:00 9,6 4,6 16 9 36 20 S 0,0
21.10.2018 04:00:00 9,6 4,8 18 10 34 18 SSE 0,0
21.10.2018 03:00:00 9,6 4,5 18 10 29 16 S 0,0
21.10.2018 02:00:00 9,7 4,3 13 7 23 13 S -
21.10.2018 01:00:00 9,5 4,1 9 5 14 8 SSE 0,0
21.10.2018 00:00:00 9,6 4,5 10 5 15 8 SSE 0,0
20.10.2018 23:00:00 8,5 3,6 7 4 16 8 S 0,0
20.10.2018 22:00:00 11,5 3,9 11 6 21 11 ESE 0,0
20.10.2018 21:00:00 11,4 4,1 7 4 20 11 SE 0,0
20.10.2018 20:00:00 12,2 5,1 12 6 28 15 SE -
20.10.2018 19:00:00 12,2 7,6 12 6 19 10 SE 0,0
20.10.2018 18:00:00 10,4 7,4 0 0 8 4 SSE 0,0
20.10.2018 17:00:00 11,0 7,0 2 1 9 5 NW 0,0
20.10.2018 16:00:00 11,2 7,1 2 1 10 5 NNW 0,0
20.10.2018 15:00:00 11,2 7,7 2 1 11 6 NNW 0,0
20.10.2018 14:00:00 9,4 6,5 3 2 10 5 NW -
20.10.2018 13:00:00 8,7 5,6 4 2 8 5 NW 0,0
20.10.2018 12:00:00 8,9 5,6 3 1 7 4 NW 0,0
20.10.2018 11:00:00 8,9 6,8 1 1 6 4 E 0,0
20.10.2018 10:00:00 5,2 3,9 5 3 9 5 S 0,0
20.10.2018 09:00:00 5,0 3,8 2 1 13 7 WSW 0,0
20.10.2018 08:00:00 5,2 3,9 3 2 16 9 WSW -
20.10.2018 07:00:00 5,0 3,8 0 0 15 8 W 0,0
20.10.2018 06:00:00 5,1 3,9 1 0 15 8 NW 0,0
20.10.2018 05:00:00 5,6 4,5 4 2 14 7 W 0,0
20.10.2018 04:00:00 6,5 5,3 6 4 19 11 NW 0,0
20.10.2018 03:00:00 6,7 5,5 9 5 19 10 NNW 0,0
20.10.2018 02:00:00 6,4 5,1 4 2 13 7 W -
20.10.2018 01:00:00 6,4 5,1 0 0 15 8 W 0,0
20.10.2018 00:00:00 7,1 5,9 8 4 19 10 NNW 0,0
19.10.2018 23:00:00 7,7 6,5 6 4 18 10 NW 0,0
19.10.2018 22:00:00 8,1 6,8 11 6 23 12 NW 0,0
19.10.2018 21:00:00 8,7 7,4 10 5 27 14 NNE 0,0
19.10.2018 20:00:00 - - - - - - - -
19.10.2018 19:00:00 8,8 7,6 6 3 18 10 NNW 0,0
19.10.2018 18:00:00 8,6 7,4 8 5 15 8 NNW 0,2
19.10.2018 17:00:00 8,6 7,4 6 4 16 9 NW 0,1
19.10.2018 16:00:00 8,5 7,3 10 5 18 10 NW 0,0
19.10.2018 15:00:00 8,4 7,1 6 3 15 8 NNW 0,1
19.10.2018 14:00:00 8,0 6,8 5 3 13 7 NW -
19.10.2018 13:00:00 7,9 6,7 6 3 18 10 NW 0,0
19.10.2018 12:00:00 7,5 6,2 7 4 17 9 WNW 0,0
19.10.2018 11:00:00 7,1 5,9 10 5 25 13 NW 0,0
19.10.2018 10:00:00 6,9 5,6 4 2 13 7 NW 0,0
19.10.2018 09:00:00 6,1 5,0 0 0 15 8 SE 0,0
19.10.2018 08:00:00 6,7 5,5 6 3 21 11 WNW -
19.10.2018 07:00:00 6,8 5,6 6 4 19 10 NNW 0,0
19.10.2018 06:00:00 7,1 5,9 8 4 20 11 NW 0,0
19.10.2018 05:00:00 7,3 6,1 7 4 23 12 NNW 0,0
19.10.2018 04:00:00 7,5 6,2 9 5 24 13 N 0,0
19.10.2018 03:00:00 7,4 6,2 10 5 24 13 NW 0,1
19.10.2018 02:00:00 7,7 6,5 8 4 19 11 NNW -
19.10.2018 01:00:00 7,9 6,7 7 4 16 9 NNW 0,0
19.10.2018 00:00:00 7,8 6,5 6 4 13 7 NW 0,0
18.10.2018 23:00:00 7,8 6,5 8 4 16 9 NW 0,0
18.10.2018 22:00:00 8,0 6,8 7 4 18 10 NW 0,1
18.10.2018 21:00:00 8,0 6,8 7 4 16 9 NW 1,1
18.10.2018 20:00:00 7,9 6,7 4 2 19 11 NNW -
18.10.2018 19:00:00 7,9 6,7 7 4 18 10 NW 0,0
18.10.2018 18:00:00 8,0 6,8 5 3 18 10 NW 0,0
18.10.2018 17:00:00 7,8 6,5 7 4 21 12 NNW 0,0
18.10.2018 16:00:00 7,8 6,5 10 6 23 12 NW 0,0
18.10.2018 15:00:00 7,8 6,5 9 5 21 12 NNW 0,0
18.10.2018 14:00:00 7,9 6,7 6 4 23 12 N -
18.10.2018 13:00:00 7,8 6,5 8 4 16 9 NW 0,3
18.10.2018 12:00:00 7,6 6,4 5 3 10 6 NW 0,2
18.10.2018 11:00:00 7,2 5,9 4 2 10 6 WNW 0,0
18.10.2018 10:00:00 7,0 5,8 5 3 8 4 WNW 0,0
18.10.2018 09:00:00 6,7 5,5 4 2 9 5 WNW 0,1
18.10.2018 08:00:00 6,7 5,5 4 2 11 6 NW -
18.10.2018 07:00:00 6,7 5,5 6 3 12 6 NW 0,4
18.10.2018 06:00:00 6,7 5,5 4 2 8 5 NNW 0,2
18.10.2018 05:00:00 6,8 5,6 1 1 6 3 NNW 0,0
18.10.2018 04:00:00 6,8 5,6 1 0 5 3 WNW 0,1
18.10.2018 03:00:00 6,8 5,6 2 1 5 3 NW 0,1
18.10.2018 02:00:00 6,8 5,6 3 1 6 3 NW -
18.10.2018 01:00:00 6,9 5,6 5 3 9 5 NNW 0,1
18.10.2018 00:00:00 6,9 5,6 4 2 7 4 NW 0,1
17.10.2018 23:00:00 6,8 5,6 2 1 5 3 WNW 0,1
17.10.2018 22:00:00 6,7 5,5 1 0 8 5 W 0,1
17.10.2018 21:00:00 6,8 5,5 3 1 11 6 NW 0,0
17.10.2018 20:00:00 6,9 5,5 6 3 16 9 W -
17.10.2018 19:00:00 8,0 6,4 5 3 16 8 WNW 0,0
17.10.2018 18:00:00 8,9 6,2 4 2 10 6 WNW 0,0
17.10.2018 17:00:00 11,9 4,3 6 3 15 8 W 0,0
17.10.2018 16:00:00 11,0 2,3 9 5 19 10 S 0,0
17.10.2018 15:00:00 10,7 3,4 9 5 27 14 S 0,0
17.10.2018 14:00:00 9,7 4,1 9 5 23 12 S -
17.10.2018 13:00:00 9,3 5,0 6 4 15 8 SE 0,0
17.10.2018 12:00:00 9,4 4,6 5 3 18 10 SE 0,0

tt = Température de l'air
td = dewpoint
ff = Vitesse du vent
fx = gusts
dd = Direction du vent
rr = Quantités de précipitations

stations d'obs. à proximité